createdAt,value
2022-07-29T00:00:28.059Z,61.62
2022-07-29T00:01:39.060Z,61.68
2022-07-29T00:02:42.226Z,61.50
2022-07-29T00:03:45.559Z,61.48
2022-07-29T00:04:48.655Z,61.44
2022-07-29T00:05:54.177Z,61.45
2022-07-29T00:06:57.383Z,61.52
2022-07-29T00:08:00.476Z,61.45
2022-07-29T00:09:04.025Z,61.45
2022-07-29T00:10:07.221Z,61.56
2022-07-29T00:11:10.359Z,61.61
2022-07-29T00:12:13.394Z,61.78
2022-07-29T00:13:17.105Z,61.80
2022-07-29T00:14:20.265Z,61.79
2022-07-29T00:15:23.341Z,61.57
2022-07-29T00:16:26.511Z,61.49
2022-07-29T00:17:29.830Z,61.36
2022-07-29T00:18:33.375Z,61.20
2022-07-29T00:19:36.658Z,61.31
2022-07-29T00:20:40.094Z,61.33
2022-07-29T00:21:43.597Z,61.38
2022-07-29T00:22:46.826Z,61.57
2022-07-29T00:23:50.029Z,61.44
2022-07-29T00:24:53.196Z,61.38
2022-07-29T00:25:59.150Z,61.48
2022-07-29T00:27:02.270Z,61.52
2022-07-29T00:28:05.792Z,61.49
2022-07-29T00:30:32.045Z,61.74
2022-07-29T00:31:35.187Z,62.02
2022-07-29T00:32:38.457Z,61.96
2022-07-29T00:33:41.896Z,61.84
2022-07-29T00:35:08.803Z,61.71
2022-07-29T00:36:12.148Z,61.55
2022-07-29T00:37:15.367Z,61.60
2022-07-29T00:38:50.925Z,61.53
2022-07-29T00:39:54.147Z,61.52
2022-07-29T00:40:57.318Z,61.48
2022-07-29T00:42:04.332Z,61.31
2022-07-29T00:43:07.526Z,61.29
2022-07-29T00:44:11.642Z,61.31
2022-07-29T00:45:24.453Z,61.29
2022-07-29T00:46:28.643Z,61.29
2022-07-29T00:47:38.872Z,61.51
2022-07-29T00:48:48.728Z,61.60
2022-07-29T00:49:51.903Z,61.81
2022-07-29T00:50:56.068Z,61.85
2022-07-29T00:51:59.433Z,61.95
2022-07-29T00:53:06.579Z,61.85
2022-07-29T00:54:09.883Z,61.90
2022-07-29T00:55:15.978Z,61.72
2022-07-29T00:56:19.121Z,61.68
2022-07-29T00:57:22.278Z,61.61
2022-07-29T00:58:26.169Z,61.63
2022-07-29T00:59:35.084Z,61.56
2022-07-29T01:00:38.724Z,61.60
2022-07-29T01:01:42.100Z,61.53
2022-07-29T01:02:46.436Z,61.53
2022-07-29T01:03:49.496Z,61.58
2022-07-29T01:04:52.835Z,61.63
2022-07-29T01:05:56.254Z,61.58
2022-07-29T01:07:01.794Z,61.54
2022-07-29T01:08:05.612Z,61.78
2022-07-29T01:09:08.999Z,61.78
2022-07-29T01:10:14.376Z,61.81
2022-07-29T01:11:19.180Z,61.98
2022-07-29T01:12:29.621Z,61.98
2022-07-29T01:13:34.460Z,61.83
2022-07-29T01:14:38.759Z,61.73
2022-07-29T01:15:49.492Z,61.75
2022-07-29T01:16:54.589Z,61.86
2022-07-29T01:18:03.750Z,61.85
2022-07-29T01:19:38.351Z,61.79
2022-07-29T01:20:53.130Z,61.99
2022-07-29T01:22:00.282Z,62.01
2022-07-29T01:23:28.741Z,61.88
2022-07-29T01:24:53.976Z,62.06
2022-07-29T01:26:16.879Z,62.23
2022-07-29T01:27:24.040Z,62.39
2022-07-29T01:29:01.402Z,62.61
2022-07-29T01:30:11.945Z,62.68
2022-07-29T01:31:25.104Z,62.76
2022-07-29T01:32:32.773Z,63.01
2022-07-29T01:33:51.383Z,63.12
2022-07-29T01:35:08.002Z,63.17
2022-07-29T01:36:18.739Z,63.10
2022-07-29T01:37:42.651Z,63.17
2022-07-29T01:38:55.303Z,63.15
2022-07-29T01:40:00.960Z,63.27
2022-07-29T01:41:08.946Z,63.29
2022-07-29T01:42:29.185Z,63.69
2022-07-29T01:43:45.397Z,63.93
2022-07-29T01:44:55.432Z,64.15
2022-07-29T01:46:04.544Z,64.30
2022-07-29T01:47:16.907Z,64.26
2022-07-29T01:48:25.500Z,64.08
2022-07-29T01:49:32.757Z,63.94
2022-07-29T01:50:39.666Z,63.72
2022-07-29T01:51:58.460Z,63.56
2022-07-29T01:53:08.291Z,63.53
2022-07-29T01:54:22.519Z,63.54
2022-07-29T01:55:31.070Z,63.42
2022-07-29T01:56:36.348Z,63.62
2022-07-29T01:57:41.632Z,63.71
2022-07-29T01:58:46.863Z,63.56
2022-07-29T01:59:52.296Z,63.52
2022-07-29T02:00:58.628Z,63.55
2022-07-29T02:02:02.935Z,63.40
2022-07-29T02:03:12.392Z,63.17
2022-07-29T02:04:18.565Z,62.90
2022-07-29T02:05:35.446Z,62.77
2022-07-29T02:06:42.005Z,62.58
2022-07-29T02:07:47.512Z,62.38
2022-07-29T02:08:52.472Z,62.27
2022-07-29T02:09:58.716Z,62.15
2022-07-29T02:11:05.655Z,62.13
2022-07-29T02:12:11.048Z,62.16
2022-07-29T02:13:16.821Z,62.11
2022-07-29T02:14:22.690Z,62.27
2022-07-29T02:15:28.760Z,62.41
2022-07-29T02:16:34.857Z,62.45
2022-07-29T02:17:50.120Z,62.60
2022-07-29T02:18:55.471Z,62.82
2022-07-29T02:20:03.090Z,62.91
2022-07-29T02:21:06.693Z,62.82
2022-07-29T02:22:20.820Z,62.64
2022-07-29T02:23:25.584Z,62.59
2022-07-29T02:24:31.042Z,62.43
2022-07-29T02:25:37.315Z,62.39
2022-07-29T02:26:44.317Z,62.42
2022-07-29T02:27:50.211Z,62.44
2022-07-29T02:28:56.362Z,62.28
2022-07-29T02:30:01.746Z,62.42
2022-07-29T02:31:07.853Z,62.14
2022-07-29T02:32:14.330Z,62.04
2022-07-29T02:33:18.501Z,62.06
2022-07-29T02:34:22.421Z,62.03
2022-07-29T02:35:26.297Z,61.91
2022-07-29T02:36:31.006Z,62.09
2022-07-29T02:37:35.012Z,62.27
2022-07-29T02:38:58.831Z,62.69
2022-07-29T02:40:03.205Z,62.73
2022-07-29T02:41:16.424Z,62.79
2022-07-29T02:42:22.145Z,62.86
2022-07-29T02:43:27.109Z,63.17
2022-07-29T02:44:34.478Z,63.44
2022-07-29T02:45:38.097Z,63.78
2022-07-29T02:46:47.649Z,63.79
2022-07-29T02:47:52.036Z,64.04
2022-07-29T02:49:04.333Z,64.19
2022-07-29T02:50:14.564Z,64.21
2022-07-29T02:51:43.370Z,64.55
2022-07-29T02:52:53.625Z,64.53
2022-07-29T02:54:05.517Z,64.90
2022-07-29T02:55:16.194Z,64.94
2022-07-29T02:56:25.253Z,64.90
2022-07-29T02:57:53.985Z,65.09
2022-07-29T02:59:02.200Z,64.97
2022-07-29T03:00:09.862Z,64.88
2022-07-29T03:01:21.528Z,64.93
2022-07-29T03:02:28.241Z,64.91
2022-07-29T03:03:37.036Z,64.84
2022-07-29T03:04:42.822Z,64.88
2022-07-29T03:05:46.040Z,64.76
2022-07-29T03:06:50.992Z,64.79
2022-07-29T03:07:59.790Z,64.86
2022-07-29T03:09:03.324Z,65.11
2022-07-29T03:10:07.967Z,65.11
2022-07-29T03:11:18.194Z,65.19
2022-07-29T03:12:21.660Z,65.26
2022-07-29T03:13:25.205Z,65.13
2022-07-29T03:14:29.262Z,65.14
2022-07-29T03:15:33.105Z,64.99
2022-07-29T03:16:41.167Z,64.97
2022-07-29T03:17:44.678Z,64.77
2022-07-29T03:18:48.630Z,64.72
2022-07-29T03:19:52.198Z,64.76
2022-07-29T03:20:56.041Z,64.66
2022-07-29T03:21:59.975Z,64.63
2022-07-29T03:23:03.463Z,64.36
2022-07-29T03:24:10.266Z,64.37
2022-07-29T03:25:19.203Z,64.62
2022-07-29T03:26:22.339Z,64.78
2022-07-29T03:27:25.429Z,64.92
2022-07-29T03:28:28.524Z,64.97
2022-07-29T03:29:33.712Z,65.03
2022-07-29T03:30:37.593Z,64.97
2022-07-29T03:31:44.051Z,65.01
2022-07-29T03:32:53.672Z,65.02
2022-07-29T03:33:57.018Z,64.93
2022-07-29T03:35:00.039Z,64.87
2022-07-29T03:36:03.669Z,64.74
2022-07-29T03:37:07.493Z,64.71
2022-07-29T03:38:10.681Z,64.70
2022-07-29T03:39:20.977Z,64.58
2022-07-29T03:40:52.855Z,64.63
2022-07-29T03:41:58.411Z,64.64
2022-07-29T03:43:03.609Z,64.76
2022-07-29T03:44:08.977Z,65.00
2022-07-29T03:45:18.853Z,65.18
2022-07-29T03:46:24.683Z,65.30
2022-07-29T03:47:49.811Z,65.43
2022-07-29T03:48:59.675Z,65.37
2022-07-29T03:50:12.076Z,65.48
2022-07-29T03:51:15.434Z,65.55
2022-07-29T03:52:21.842Z,65.60
2022-07-29T03:53:25.090Z,65.53
2022-07-29T03:54:28.428Z,65.45
2022-07-29T03:55:38.859Z,65.48
2022-07-29T03:56:49.710Z,65.46
2022-07-29T03:57:53.062Z,65.42
2022-07-29T03:58:57.295Z,65.42
2022-07-29T04:00:02.459Z,65.45
2022-07-29T04:01:06.125Z,65.46
2022-07-29T04:02:12.151Z,65.47
2022-07-29T04:03:15.727Z,65.55
2022-07-29T04:04:19.699Z,65.57
2022-07-29T04:05:22.970Z,65.57
2022-07-29T04:06:26.914Z,65.52
2022-07-29T04:07:30.901Z,65.66
2022-07-29T04:08:34.704Z,65.51
2022-07-29T04:09:37.919Z,65.54
2022-07-29T04:10:40.953Z,65.37
2022-07-29T04:12:03.451Z,65.35
2022-07-29T04:13:07.328Z,65.24
2022-07-29T04:14:10.674Z,65.27
2022-07-29T04:15:13.827Z,65.17
2022-07-29T04:16:16.945Z,65.19
2022-07-29T04:17:20.115Z,65.29
2022-07-29T04:18:23.404Z,65.46
2022-07-29T04:19:26.553Z,65.71
2022-07-29T04:20:29.719Z,65.79
2022-07-29T04:21:38.488Z,65.74
2022-07-29T04:22:42.242Z,65.75
2022-07-29T04:23:53.010Z,65.74
2022-07-29T04:25:00.343Z,65.76
2022-07-29T04:26:06.928Z,65.86
2022-07-29T04:27:11.760Z,65.85
2022-07-29T04:28:16.086Z,65.83
2022-07-29T04:29:21.004Z,65.80
2022-07-29T04:30:24.603Z,65.82
2022-07-29T04:31:28.152Z,65.93
2022-07-29T04:32:31.235Z,66.02
2022-07-29T04:33:37.146Z,66.08
2022-07-29T04:34:40.187Z,66.20
2022-07-29T04:35:47.164Z,66.18
2022-07-29T04:36:53.782Z,65.95
2022-07-29T04:37:56.990Z,65.95
2022-07-29T04:39:02.629Z,65.96
2022-07-29T04:40:06.544Z,66.02
2022-07-29T04:41:09.891Z,65.91
2022-07-29T04:42:14.496Z,65.82
2022-07-29T04:43:22.472Z,65.76
2022-07-29T04:44:29.126Z,65.72
2022-07-29T04:45:32.419Z,65.54
2022-07-29T04:46:36.362Z,65.54
2022-07-29T04:47:39.504Z,65.54
2022-07-29T04:48:42.918Z,65.69
2022-07-29T04:49:48.549Z,65.75
2022-07-29T04:50:51.796Z,65.97
2022-07-29T04:51:55.117Z,65.97
2022-07-29T04:52:58.695Z,65.99
2022-07-29T04:54:02.784Z,66.05
2022-07-29T04:55:06.884Z,66.03
2022-07-29T04:56:10.083Z,66.07
2022-07-29T04:57:13.090Z,66.10
2022-07-29T04:58:16.637Z,65.77
2022-07-29T04:59:19.789Z,65.53
2022-07-29T05:00:24.253Z,65.32
2022-07-29T05:01:36.282Z,65.06
2022-07-29T05:02:39.841Z,65.23
2022-07-29T05:03:43.371Z,65.45
2022-07-29T05:04:46.488Z,65.44
2022-07-29T05:05:49.630Z,65.86
2022-07-29T05:06:52.795Z,65.63
2022-07-29T05:07:56.478Z,65.60
2022-07-29T05:08:59.572Z,65.71
2022-07-29T05:10:02.703Z,65.74
2022-07-29T05:11:12.087Z,65.93
2022-07-29T05:12:17.653Z,66.11
2022-07-29T05:13:20.769Z,66.00
2022-07-29T05:14:23.844Z,66.16
2022-07-29T05:15:27.365Z,66.13
2022-07-29T05:16:30.450Z,66.44
2022-07-29T05:17:33.564Z,66.37
2022-07-29T05:18:36.730Z,66.42
2022-07-29T05:19:39.932Z,66.38
2022-07-29T05:20:43.139Z,66.20
2022-07-29T05:21:46.271Z,66.07
2022-07-29T05:22:50.043Z,65.98
2022-07-29T05:23:53.101Z,66.04
2022-07-29T05:24:56.209Z,66.00
2022-07-29T05:25:59.346Z,66.08
2022-07-29T05:27:03.426Z,66.09
2022-07-29T05:28:06.604Z,65.96
2022-07-29T05:29:42.595Z,66.12
2022-07-29T05:30:33.061Z,66.24
2022-07-29T05:31:36.334Z,66.29
2022-07-29T05:32:39.442Z,66.26
2022-07-29T05:33:42.964Z,66.32
2022-07-29T05:34:51.423Z,66.35
2022-07-29T05:35:59.946Z,66.30
2022-07-29T05:37:03.747Z,66.20
2022-07-29T05:38:06.879Z,66.17
2022-07-29T05:39:10.649Z,66.22
2022-07-29T05:40:13.766Z,66.19
2022-07-29T05:41:16.874Z,66.06
2022-07-29T05:42:19.976Z,66.01
2022-07-29T05:43:23.144Z,65.50
2022-07-29T05:44:26.405Z,65.49
2022-07-29T05:45:29.651Z,65.28
2022-07-29T05:46:32.798Z,65.20
2022-07-29T05:47:36.086Z,65.25
2022-07-29T05:48:40.145Z,65.10
2022-07-29T05:49:43.291Z,64.99
2022-07-29T05:50:46.586Z,65.09
2022-07-29T05:51:50.479Z,64.96
2022-07-29T05:52:53.665Z,65.08
2022-07-29T05:53:56.859Z,65.11
2022-07-29T05:55:00.264Z,65.05
2022-07-29T05:56:06.880Z,64.88
2022-07-29T05:57:15.969Z,64.67
2022-07-29T05:58:19.430Z,64.36
2022-07-29T05:59:25.953Z,64.23
2022-07-29T06:00:31.705Z,64.01
2022-07-29T06:01:34.942Z,64.01
2022-07-29T06:02:40.447Z,63.92
2022-07-29T06:03:44.279Z,63.78
2022-07-29T06:04:50.171Z,63.74
2022-07-29T06:05:53.355Z,63.67
2022-07-29T06:06:56.576Z,63.41
2022-07-29T06:07:59.688Z,63.36
2022-07-29T06:09:11.550Z,63.08
2022-07-29T06:10:15.819Z,63.00
2022-07-29T06:11:18.913Z,62.83
2022-07-29T06:12:22.470Z,62.72
2022-07-29T06:13:26.689Z,62.82
2022-07-29T06:14:29.887Z,62.73
2022-07-29T06:15:33.336Z,62.70
2022-07-29T06:16:36.824Z,62.55
2022-07-29T06:17:39.983Z,62.42
2022-07-29T06:19:03.024Z,62.55
2022-07-29T06:20:07.535Z,62.65
2022-07-29T06:21:11.375Z,62.65
2022-07-29T06:22:17.309Z,62.58
2022-07-29T06:23:21.864Z,62.32
2022-07-29T06:24:24.950Z,62.21
2022-07-29T06:25:31.999Z,62.13
2022-07-29T06:26:39.221Z,62.19
2022-07-29T06:27:45.839Z,62.07
2022-07-29T06:28:49.069Z,61.96
2022-07-29T06:29:53.628Z,61.86
2022-07-29T06:30:56.854Z,61.80
2022-07-29T06:32:00.060Z,61.72
2022-07-29T06:33:04.077Z,61.69
2022-07-29T06:34:07.732Z,61.65
2022-07-29T06:35:38.283Z,61.42
2022-07-29T06:36:37.999Z,61.39
2022-07-29T06:37:43.009Z,61.51
2022-07-29T06:38:49.396Z,61.48
2022-07-29T06:40:14.732Z,61.26
2022-07-29T06:41:17.936Z,61.11
2022-07-29T06:42:21.028Z,61.09
2022-07-29T06:43:24.203Z,60.99
2022-07-29T06:44:31.680Z,60.91
2022-07-29T06:45:39.815Z,60.98
2022-07-29T06:46:43.120Z,60.98
2022-07-29T06:47:46.279Z,60.85
2022-07-29T06:48:50.350Z,60.72
2022-07-29T06:49:54.184Z,60.80
2022-07-29T06:50:57.456Z,60.57
2022-07-29T06:52:00.803Z,60.53
2022-07-29T06:53:04.713Z,60.44
2022-07-29T06:54:07.846Z,60.37
2022-07-29T06:55:11.349Z,60.32
2022-07-29T06:56:28.304Z,60.31
2022-07-29T06:57:31.624Z,60.36
2022-07-29T06:58:35.054Z,60.19
2022-07-29T06:59:38.134Z,60.20
2022-07-29T07:00:41.735Z,60.12
2022-07-29T07:01:45.997Z,59.97
2022-07-29T07:02:49.330Z,59.94
2022-07-29T07:03:52.489Z,59.87
2022-07-29T07:04:55.540Z,59.89
2022-07-29T07:05:59.082Z,60.10
2022-07-29T07:07:03.763Z,60.30
2022-07-29T07:08:07.246Z,60.30
2022-07-29T07:09:10.340Z,60.47
2022-07-29T07:10:13.628Z,60.32
2022-07-29T07:11:16.739Z,60.11
2022-07-29T07:12:20.057Z,59.92
2022-07-29T07:13:24.689Z,59.72
2022-07-29T07:14:29.104Z,59.26
2022-07-29T07:15:39.938Z,59.33
2022-07-29T07:16:43.329Z,59.18
2022-07-29T07:17:46.530Z,59.35
2022-07-29T07:18:49.704Z,59.34
2022-07-29T07:19:52.770Z,59.03
2022-07-29T07:20:56.962Z,58.40
2022-07-29T07:22:00.915Z,58.42
2022-07-29T07:23:05.739Z,57.93
2022-07-29T07:24:09.093Z,57.39
2022-07-29T07:25:13.300Z,57.16
2022-07-29T07:26:16.768Z,57.10
2022-07-29T07:27:19.876Z,56.78
2022-07-29T07:28:24.470Z,56.63
2022-07-29T07:29:28.337Z,56.55
2022-07-29T07:30:32.106Z,56.48
2022-07-29T07:31:35.320Z,56.17
2022-07-29T07:32:38.753Z,55.95
2022-07-29T07:33:41.894Z,55.92
2022-07-29T07:34:45.112Z,56.08
2022-07-29T07:35:48.582Z,56.28
2022-07-29T07:36:51.649Z,56.30
2022-07-29T07:37:56.104Z,56.48
2022-07-29T07:38:59.263Z,56.46
2022-07-29T07:40:03.228Z,56.29
2022-07-29T07:41:09.413Z,56.06
2022-07-29T07:42:13.993Z,56.00
2022-07-29T07:43:17.154Z,56.14
2022-07-29T07:44:20.533Z,56.11
2022-07-29T07:45:24.159Z,55.89
2022-07-29T07:46:27.326Z,56.13
2022-07-29T07:47:30.520Z,56.46
2022-07-29T07:48:37.531Z,56.61
2022-07-29T07:49:40.762Z,56.59
2022-07-29T07:50:45.388Z,56.32
2022-07-29T07:51:50.721Z,56.23
2022-07-29T07:52:56.239Z,56.08
2022-07-29T07:53:59.724Z,55.95
2022-07-29T07:55:02.996Z,55.83
2022-07-29T07:56:12.431Z,55.70
2022-07-29T07:57:16.540Z,55.80
2022-07-29T07:58:19.704Z,56.26
2022-07-29T07:59:22.893Z,56.38
2022-07-29T08:00:26.083Z,56.23
2022-07-29T08:01:29.240Z,56.11
2022-07-29T08:02:52.116Z,56.17
2022-07-29T08:03:55.431Z,56.08
2022-07-29T08:04:58.450Z,56.21
2022-07-29T08:06:02.073Z,56.50
2022-07-29T08:07:05.634Z,56.90
2022-07-29T08:08:09.259Z,57.06
2022-07-29T08:09:28.084Z,57.27
2022-07-29T08:10:52.174Z,57.34
2022-07-29T08:11:56.164Z,57.40
2022-07-29T08:13:00.691Z,57.27
2022-07-29T08:14:06.567Z,57.52
2022-07-29T08:15:10.152Z,57.62
2022-07-29T08:16:13.934Z,57.67
2022-07-29T08:17:17.507Z,58.01
2022-07-29T08:18:20.518Z,58.35
2022-07-29T08:19:23.573Z,58.63
2022-07-29T08:20:27.738Z,58.69
2022-07-29T08:21:30.790Z,59.11
2022-07-29T08:22:33.841Z,58.93
2022-07-29T08:23:45.961Z,58.78
2022-07-29T08:24:57.743Z,58.76
2022-07-29T08:26:00.932Z,58.93
2022-07-29T08:27:12.855Z,58.64
2022-07-29T08:28:27.516Z,58.79
2022-07-29T08:29:30.610Z,58.95
2022-07-29T08:30:34.988Z,58.53
2022-07-29T08:31:38.843Z,58.49
2022-07-29T08:32:57.640Z,58.29
2022-07-29T08:34:01.137Z,58.37
2022-07-29T08:35:04.538Z,58.16
2022-07-29T08:36:08.303Z,58.16
2022-07-29T08:37:11.470Z,58.05
2022-07-29T08:38:14.629Z,57.82
2022-07-29T08:39:17.662Z,57.68
2022-07-29T08:40:32.081Z,57.62
2022-07-29T08:41:36.534Z,57.30
2022-07-29T08:42:39.559Z,57.51
2022-07-29T08:43:43.003Z,57.28
2022-07-29T08:44:46.373Z,57.22
2022-07-29T08:45:51.986Z,57.35
2022-07-29T08:46:55.263Z,57.57
2022-07-29T08:47:58.843Z,57.63
2022-07-29T08:49:03.472Z,57.83
2022-07-29T08:50:08.566Z,57.87
2022-07-29T08:51:16.234Z,57.94
2022-07-29T08:52:20.987Z,57.97
2022-07-29T08:53:27.900Z,58.16
2022-07-29T08:54:31.625Z,58.00
2022-07-29T08:55:35.398Z,58.29
2022-07-29T08:56:40.712Z,58.54
2022-07-29T08:57:51.923Z,58.92
2022-07-29T08:58:59.563Z,58.85
2022-07-29T09:00:08.129Z,58.57
2022-07-29T09:01:22.064Z,58.42
2022-07-29T09:02:29.417Z,58.60
2022-07-29T09:03:35.703Z,58.82
2022-07-29T09:04:39.489Z,58.79
2022-07-29T09:05:47.779Z,58.61
2022-07-29T09:06:55.555Z,58.39
2022-07-29T09:07:58.845Z,58.23
2022-07-29T09:09:02.160Z,58.02
2022-07-29T09:10:06.542Z,57.98
2022-07-29T09:11:09.725Z,58.05
2022-07-29T09:12:13.535Z,58.23
2022-07-29T09:13:32.863Z,57.89
2022-07-29T09:14:35.943Z,57.80
2022-07-29T09:15:39.053Z,57.67
2022-07-29T09:17:01.142Z,57.62
2022-07-29T09:18:05.246Z,57.91
2022-07-29T09:19:31.145Z,57.83
2022-07-29T09:20:52.927Z,57.61
2022-07-29T09:22:03.515Z,57.92
2022-07-29T09:23:09.391Z,57.71
2022-07-29T09:24:14.269Z,57.79
2022-07-29T09:25:38.286Z,58.04
2022-07-29T09:26:47.050Z,57.62
2022-07-29T09:27:52.158Z,57.26
2022-07-29T09:28:55.597Z,57.36
2022-07-29T09:30:06.988Z,57.39
2022-07-29T09:31:10.272Z,57.11
2022-07-29T09:32:13.589Z,56.78
2022-07-29T09:33:16.688Z,56.49
2022-07-29T09:34:29.656Z,56.27
2022-07-29T09:35:33.094Z,56.25
2022-07-29T09:36:56.229Z,56.06
2022-07-29T09:38:11.868Z,55.38
2022-07-29T09:39:17.783Z,54.88
2022-07-29T09:40:23.927Z,55.08
2022-07-29T09:41:28.189Z,55.14
2022-07-29T09:42:33.625Z,54.79
2022-07-29T09:43:37.114Z,54.21
2022-07-29T09:44:43.498Z,54.08
2022-07-29T09:45:48.559Z,54.25
2022-07-29T09:46:59.272Z,53.97
2022-07-29T09:48:18.423Z,53.98
2022-07-29T09:49:21.699Z,53.90
2022-07-29T09:50:44.984Z,53.85
2022-07-29T09:51:48.685Z,53.75
2022-07-29T09:52:54.466Z,53.59
2022-07-29T09:53:57.669Z,53.03
2022-07-29T09:55:17.843Z,52.83
2022-07-29T09:56:21.439Z,52.98
2022-07-29T09:57:30.789Z,53.03
2022-07-29T09:58:35.146Z,52.91
2022-07-29T09:59:49.871Z,52.80
2022-07-29T10:00:56.111Z,52.61
2022-07-29T10:01:59.469Z,52.48
2022-07-29T10:03:03.842Z,52.47
2022-07-29T10:04:07.038Z,52.13
2022-07-29T10:05:25.147Z,52.12
2022-07-29T10:06:28.473Z,52.32
2022-07-29T10:07:53.485Z,51.53
2022-07-29T10:09:09.672Z,51.26
2022-07-29T10:10:20.894Z,51.48
2022-07-29T10:11:24.021Z,51.35
2022-07-29T10:12:27.165Z,51.82
2022-07-29T10:13:30.540Z,51.92
2022-07-29T10:14:34.651Z,51.65
2022-07-29T10:15:44.630Z,51.24
2022-07-29T10:16:48.070Z,51.19
2022-07-29T10:17:52.890Z,50.96
2022-07-29T10:18:56.633Z,50.93
2022-07-29T10:19:59.805Z,50.83
2022-07-29T10:21:03.146Z,50.96
2022-07-29T10:22:11.199Z,50.95
2022-07-29T10:23:15.171Z,50.98
2022-07-29T10:24:18.599Z,50.85
2022-07-29T10:25:22.287Z,50.80
2022-07-29T10:26:26.001Z,50.84
2022-07-29T10:27:29.133Z,50.90
2022-07-29T10:28:36.185Z,51.26
2022-07-29T10:29:39.305Z,51.33
2022-07-29T10:30:45.567Z,51.29
2022-07-29T10:32:03.430Z,51.55
2022-07-29T10:33:06.634Z,51.71
2022-07-29T10:34:20.372Z,51.83
2022-07-29T10:35:39.202Z,51.68
2022-07-29T10:37:19.657Z,51.68
2022-07-29T10:39:09.774Z,51.85
2022-07-29T10:40:45.737Z,51.71
2022-07-29T10:41:51.425Z,51.45
2022-07-29T10:43:02.370Z,51.09
2022-07-29T10:44:14.769Z,51.57
2022-07-29T10:45:20.980Z,51.49
2022-07-29T10:46:25.553Z,51.16
2022-07-29T10:47:29.313Z,51.10
2022-07-29T10:48:32.765Z,51.63
2022-07-29T10:49:35.895Z,51.50
2022-07-29T10:50:58.091Z,51.33
2022-07-29T10:52:09.148Z,51.03
2022-07-29T10:53:12.114Z,50.58
2022-07-29T10:54:37.285Z,50.90
2022-07-29T10:55:47.756Z,50.50
2022-07-29T10:56:51.156Z,50.30
2022-07-29T10:58:19.522Z,50.24
2022-07-29T11:00:49.410Z,51.02
2022-07-29T11:01:54.398Z,50.89
2022-07-29T11:03:10.507Z,51.07
2022-07-29T11:04:14.320Z,51.00
2022-07-29T11:05:22.311Z,50.51
2022-07-29T11:06:28.221Z,50.07
2022-07-29T11:07:45.823Z,49.92
2022-07-29T11:09:16.663Z,48.78
2022-07-29T11:10:20.172Z,47.13
2022-07-29T11:11:30.007Z,44.83
2022-07-29T11:12:39.556Z,44.61
2022-07-29T11:13:51.281Z,44.34
2022-07-29T11:14:58.975Z,44.06
2022-07-29T11:16:02.262Z,44.18
2022-07-29T11:17:09.194Z,43.20
2022-07-29T11:18:14.989Z,41.51
2022-07-29T11:19:29.795Z,41.43
2022-07-29T11:20:50.130Z,41.92
2022-07-29T11:21:58.320Z,41.92
2022-07-29T11:23:02.461Z,41.25
2022-07-29T11:24:18.606Z,40.69
2022-07-29T11:25:42.867Z,40.58
2022-07-29T11:27:17.940Z,38.23
2022-07-29T11:29:50.423Z,37.56
2022-07-29T11:30:56.302Z,38.46
2022-07-29T11:32:18.107Z,37.73
2022-07-29T11:33:37.407Z,37.65
2022-07-29T11:35:17.712Z,35.83
2022-07-29T11:36:28.011Z,35.54
2022-07-29T11:37:32.094Z,36.12
2022-07-29T11:38:45.788Z,36.59
2022-07-29T11:39:54.396Z,36.26
2022-07-29T11:41:19.122Z,35.50
2022-07-29T11:43:59.402Z,34.80
2022-07-29T11:45:41.520Z,35.11
2022-07-29T11:46:50.519Z,35.63
2022-07-29T11:47:56.102Z,35.99
2022-07-29T11:48:59.638Z,35.58
2022-07-29T11:50:04.938Z,35.33
2022-07-29T11:51:13.419Z,34.89
2022-07-29T11:52:16.657Z,34.20
2022-07-29T11:53:19.837Z,34.35
2022-07-29T11:54:27.861Z,33.82
2022-07-29T11:55:37.049Z,33.83
2022-07-29T11:56:55.182Z,33.19
2022-07-29T11:58:03.711Z,32.94
2022-07-29T11:59:10.463Z,32.14
2022-07-29T12:00:32.229Z,31.85
2022-07-29T12:01:35.547Z,32.23
2022-07-29T12:02:48.182Z,32.22
2022-07-29T12:04:04.508Z,31.78
2022-07-29T12:05:12.199Z,31.82
2022-07-29T12:06:17.964Z,32.63
2022-07-29T12:07:01.387Z,37.76
2022-07-29T12:07:34.780Z,32.77
2022-07-29T12:08:43.713Z,32.10
2022-07-29T12:09:56.803Z,31.50
2022-07-29T12:11:00.955Z,31.18
2022-07-29T12:12:05.955Z,30.76
2022-07-29T12:13:10.280Z,30.20
2022-07-29T12:14:26.194Z,30.86
2022-07-29T12:15:39.185Z,30.43
2022-07-29T12:16:49.544Z,29.99
2022-07-29T12:17:53.187Z,29.79
2022-07-29T12:19:00.453Z,30.12
2022-07-29T12:20:06.257Z,30.68
2022-07-29T12:21:12.480Z,31.56
2022-07-29T12:22:27.183Z,31.82
2022-07-29T12:23:35.421Z,31.71
2022-07-29T12:24:45.427Z,31.51
2022-07-29T12:25:49.789Z,31.49
2022-07-29T12:26:54.074Z,30.49
2022-07-29T12:28:06.960Z,30.08
2022-07-29T12:29:20.502Z,30.03
2022-07-29T12:30:49.828Z,29.15
2022-07-29T12:31:57.978Z,29.27
2022-07-29T12:33:01.426Z,29.73
2022-07-29T12:34:04.743Z,29.64
2022-07-29T12:35:17.149Z,29.58
2022-07-29T12:36:20.398Z,30.12
2022-07-29T12:37:30.947Z,29.42
2022-07-29T12:38:44.719Z,29.36
2022-07-29T12:39:48.077Z,29.67
2022-07-29T12:40:53.093Z,29.47
2022-07-29T12:42:04.520Z,29.57
2022-07-29T12:43:12.659Z,29.50
2022-07-29T12:44:15.965Z,29.40
2022-07-29T12:45:30.088Z,30.12
2022-07-29T12:46:33.306Z,29.49
2022-07-29T12:47:53.329Z,29.66
2022-07-29T12:48:57.730Z,29.47
2022-07-29T12:50:24.472Z,29.06
2022-07-29T12:51:40.645Z,28.99
2022-07-29T12:52:43.824Z,29.47
2022-07-29T12:54:17.408Z,29.22
2022-07-29T12:55:49.909Z,28.78
2022-07-29T12:57:00.965Z,28.89
2022-07-29T12:58:04.367Z,28.67
2022-07-29T12:59:20.132Z,28.96
2022-07-29T13:00:25.431Z,29.11
2022-07-29T13:01:37.875Z,28.26
2022-07-29T13:02:43.678Z,28.33
2022-07-29T13:03:56.849Z,27.24
2022-07-29T13:05:02.121Z,26.30
2022-07-29T13:06:05.314Z,26.53
2022-07-29T13:07:09.292Z,26.49
2022-07-29T13:08:20.406Z,26.65
2022-07-29T13:09:38.317Z,27.87
2022-07-29T13:10:41.828Z,28.45
2022-07-29T13:11:50.894Z,29.00
2022-07-29T13:13:11.416Z,28.28
2022-07-29T13:14:30.327Z,27.35
2022-07-29T13:15:35.083Z,27.47
2022-07-29T13:16:59.510Z,27.05
2022-07-29T13:18:04.094Z,26.96
2022-07-29T13:19:17.380Z,26.62
2022-07-29T13:20:25.544Z,27.23
2022-07-29T13:21:28.637Z,27.00
2022-07-29T13:22:32.017Z,27.92
2022-07-29T13:23:38.413Z,27.77
2022-07-29T13:24:55.148Z,27.87
2022-07-29T13:26:08.499Z,27.72
2022-07-29T13:27:11.655Z,27.96
2022-07-29T13:28:14.885Z,27.87
2022-07-29T13:29:18.066Z,25.79
2022-07-29T13:30:22.702Z,25.20
2022-07-29T13:31:25.885Z,25.52
2022-07-29T13:32:31.039Z,26.08
2022-07-29T13:33:34.065Z,26.42
2022-07-29T13:34:37.150Z,26.41
2022-07-29T13:35:40.386Z,26.68
2022-07-29T13:36:43.562Z,26.56
2022-07-29T13:37:48.608Z,25.66
2022-07-29T13:38:58.094Z,25.22
2022-07-29T13:40:01.498Z,25.20
2022-07-29T13:42:05.872Z,25.27
2022-07-29T13:43:11.969Z,26.58
2022-07-29T13:44:22.977Z,26.84
2022-07-29T13:45:36.850Z,26.91
2022-07-29T13:46:40.139Z,26.58
2022-07-29T13:47:47.686Z,26.86
2022-07-29T13:49:12.618Z,27.36
2022-07-29T13:50:19.311Z,26.66
2022-07-29T13:51:22.488Z,25.81
2022-07-29T13:52:25.748Z,25.87
2022-07-29T13:53:29.819Z,26.14
2022-07-29T13:54:32.872Z,26.31
2022-07-29T13:55:36.061Z,26.35
2022-07-29T13:56:39.366Z,26.38
2022-07-29T14:01:05.260Z,27.18
2022-07-29T14:03:53.369Z,26.60
2022-07-29T14:04:56.630Z,25.53
2022-07-29T14:06:01.403Z,25.80
2022-07-29T14:07:05.448Z,25.96
2022-07-29T14:08:09.034Z,25.62
2022-07-29T14:09:12.046Z,25.10
2022-07-29T14:10:19.931Z,25.00
2022-07-29T14:11:23.291Z,25.44
2022-07-29T14:12:26.402Z,25.91
2022-07-29T14:13:29.698Z,26.89
2022-07-29T14:14:33.659Z,26.78
2022-07-29T14:15:39.316Z,26.15
2022-07-29T14:16:47.553Z,26.29
2022-07-29T14:17:52.341Z,26.65
2022-07-29T14:18:55.346Z,25.77
2022-07-29T14:19:58.441Z,26.34
2022-07-29T14:21:04.116Z,26.51
2022-07-29T14:22:08.966Z,26.78
2022-07-29T14:23:12.979Z,26.56
2022-07-29T14:24:21.777Z,26.22
2022-07-29T14:25:26.950Z,25.06
2022-07-29T14:26:30.182Z,24.79
2022-07-29T14:27:37.410Z,24.92
2022-07-29T14:28:42.049Z,25.59
2022-07-29T14:29:45.283Z,25.60
2022-07-29T14:30:48.446Z,25.53
2022-07-29T14:31:51.694Z,25.71
2022-07-29T14:33:19.876Z,25.29
2022-07-29T14:34:35.704Z,25.40
2022-07-29T14:35:38.900Z,24.86
2022-07-29T14:36:42.253Z,25.68
2022-07-29T14:37:45.320Z,25.37